Time;durP1;ratioP1;P1;durP2;ratioP2;P2;SDS_P1;SDS_P2;PMS_P1;PMS_P2;Temp;Humidity;BMP_temperature;BMP_pressure;BME280_temperature;BME280_humidity;BME280_pressure;Samples;Min_cycle;Max_cycle;Signal;HPM_P1;HPM_P2
2023/06/19 00:00:12;;;;;;;7.57;5.50;;;22.00;99.90;;;;;;5029459;28;20120;-76
2023/06/19 00:02:39;;;;;;;6.32;5.70;;;22.00;99.90;;;;;;5029329;28;20037;-76
2023/06/19 00:05:05;;;;;;;6.20;5.60;;;22.00;99.90;;;;;;5046010;28;20501;-77
2023/06/19 00:07:30;;;;;;;7.28;5.82;;;22.00;99.90;;;;;;5017525;28;20049;-76
2023/06/19 00:09:56;;;;;;;6.30;5.70;;;22.00;99.90;;;;;;5046056;28;20037;-76
2023/06/19 00:12:21;;;;;;;7.22;5.60;;;22.00;99.90;;;;;;5029319;28;20509;-76
2023/06/19 00:14:46;;;;;;;7.35;5.28;;;21.90;99.90;;;;;;5029413;28;20051;-76
2023/06/19 00:17:16;;;;;;;6.15;5.55;;;21.90;99.90;;;;;;5029560;28;20041;-76
2023/06/19 00:19:42;;;;;;;6.88;5.75;;;21.90;99.90;;;;;;5029302;28;20065;-76
2023/06/19 00:22:08;;;;;;;7.80;5.80;;;21.90;99.90;;;;;;5029348;28;20441;-76
2023/06/19 00:24:33;;;;;;;6.43;5.55;;;21.90;99.90;;;;;;5045839;28;20069;-76
2023/06/19 00:27:02;;;;;;;6.20;5.47;;;21.90;99.90;;;;;;5046203;28;20077;-76
2023/06/19 00:29:32;;;;;;;6.28;5.70;;;21.90;99.90;;;;;;5029370;28;20045;-77
2023/06/19 00:31:59;;;;;;;7.07;5.70;;;21.90;99.90;;;;;;5032920;28;20417;-77
2023/06/19 00:34:24;;;;;;;6.55;5.63;;;21.80;99.90;;;;;;5049573;28;20045;-76
2023/06/19 00:36:51;;;;;;;6.40;5.72;;;21.80;99.90;;;;;;5033023;28;20033;-76
2023/06/19 00:39:17;;;;;;;7.55;5.72;;;21.80;99.90;;;;;;5032839;28;20033;-77
2023/06/19 00:41:44;;;;;;;6.78;6.15;;;21.80;99.90;;;;;;5049547;28;20087;-76
2023/06/19 00:44:10;;;;;;;8.95;6.35;;;21.80;99.90;;;;;;5024754;28;20139;-78
2023/06/19 00:46:41;;;;;;;6.22;5.63;;;21.80;99.90;;;;;;5032588;28;20069;-76
2023/06/19 00:49:07;;;;;;;7.18;5.45;;;21.80;99.90;;;;;;5033095;28;20411;-76
2023/06/19 00:51:33;;;;;;;6.63;5.80;;;21.80;99.90;;;;;;5032477;28;20868;-76
2023/06/19 00:53:59;;;;;;;8.00;6.18;;;21.70;99.90;;;;;;5049439;28;20069;-75
2023/06/19 00:56:25;;;;;;;7.00;5.93;;;21.70;99.90;;;;;;5032773;28;20405;-76
2023/06/19 00:58:55;;;;;;;8.27;6.30;;;21.70;99.90;;;;;;5049176;28;20033;-76
2023/06/19 01:01:23;;;;;;;6.40;5.80;;;21.70;99.90;;;;;;5048850;28;20108;-76
2023/06/19 01:03:49;;;;;;;7.00;5.90;;;21.60;99.90;;;;;;5032716;28;20037;-76
2023/06/19 01:06:21;;;;;;;7.10;6.03;;;21.60;99.90;;;;;;5032366;28;20041;-76
2023/06/19 01:08:51;;;;;;;6.65;5.97;;;21.60;99.90;;;;;;5032318;28;20037;-76
2023/06/19 01:11:21;;;;;;;8.55;6.25;;;21.60;99.90;;;;;;5048803;28;20038;-76
2023/06/19 01:13:59;;;;;;;6.70;6.00;;;21.60;99.90;;;;;;5032332;28;20087;-77
2023/06/19 01:16:26;;;;;;;7.32;5.82;;;21.50;99.90;;;;;;5048773;28;20076;-77
2023/06/19 01:18:52;;;;;;;6.75;6.05;;;21.50;99.90;;;;;;5047986;28;20042;-76
2023/06/19 01:21:19;;;;;;;6.25;5.65;;;21.50;99.90;;;;;;5031766;28;20107;-77
2023/06/19 01:23:45;;;;;;;8.38;6.00;;;21.50;99.90;;;;;;5032114;28;20120;-76
2023/06/19 01:26:11;;;;;;;6.15;5.55;;;21.50;99.90;;;;;;5032057;28;20038;-78
2023/06/19 01:28:42;;;;;;;6.75;5.65;;;21.50;99.90;;;;;;5015725;28;20504;-76
2023/06/19 01:31:21;;;;;;;6.68;5.70;;;21.50;99.90;;;;;;5048477;28;20041;-76
2023/06/19 01:33:48;;;;;;;6.60;5.90;;;21.30;99.90;;;;;;5032079;28;20444;-77
2023/06/19 01:36:14;;;;;;;7.32;6.22;;;21.40;99.90;;;;;;5048694;28;20120;-77
2023/06/19 01:38:41;;;;;;;6.35;5.75;;;21.40;99.90;;;;;;5031750;28;20033;-76
2023/06/19 01:41:09;;;;;;;6.55;5.85;;;21.40;99.90;;;;;;5031535;28;20516;-76
2023/06/19 01:43:35;;;;;;;6.60;5.90;;;21.40;99.90;;;;;;5031050;28;20029;-77
2023/06/19 01:46:01;;;;;;;6.32;5.63;;;21.40;99.90;;;;;;5026845;28;20081;-76
2023/06/19 01:48:27;;;;;;;7.03;5.35;;;21.40;99.90;;;;;;5031551;28;20052;-77
2023/06/19 01:50:53;;;;;;;7.03;5.70;;;21.40;99.90;;;;;;5031538;28;20048;-76
2023/06/19 01:53:19;;;;;;;6.65;5.95;;;21.30;99.90;;;;;;5047693;28;20041;-76
2023/06/19 01:55:44;;;;;;;8.38;6.00;;;21.30;99.90;;;;;;5048107;28;20524;-76
2023/06/19 01:58:10;;;;;;;6.57;5.72;;;21.30;99.90;;;;;;5031671;28;20041;-77
2023/06/19 02:00:35;;;;;;;7.05;5.82;;;21.30;99.90;;;;;;5031390;28;20029;-76
2023/06/19 02:03:01;;;;;;;7.10;5.68;;;21.30;99.90;;;;;;5047721;28;20040;-76
2023/06/19 02:05:27;;;;;;;6.70;5.93;;;21.40;99.90;;;;;;5047888;28;20115;-76
2023/06/19 02:07:53;;;;;;;6.97;6.22;;;21.30;99.90;;;;;;5031474;28;20474;-75
2023/06/19 02:10:18;;;;;;;8.40;5.90;;;21.40;99.90;;;;;;5027561;28;20029;-76
2023/06/19 02:12:44;;;;;;;6.95;5.32;;;21.40;99.90;;;;;;5005372;28;20041;-76
2023/06/19 02:15:09;;;;;;;7.05;5.75;;;21.40;99.90;;;;;;5030018;28;20048;-76
2023/06/19 02:17:35;;;;;;;6.35;5.70;;;21.40;99.90;;;;;;5021973;28;20108;-76
2023/06/19 02:20:00;;;;;;;6.93;5.80;;;21.40;99.90;;;;;;5029834;28;20609;-76
2023/06/19 02:22:26;;;;;;;6.70;6.10;;;21.40;99.90;;;;;;5029128;28;20069;-76
2023/06/19 02:24:51;;;;;;;7.30;5.80;;;21.40;99.90;;;;;;5021566;28;20045;-77
2023/06/19 02:27:17;;;;;;;9.05;5.90;;;21.40;99.90;;;;;;5017331;28;20091;-75
2023/06/19 02:29:42;;;;;;;7.60;6.10;;;21.40;99.90;;;;;;5030184;28;20103;-76
2023/06/19 02:32:08;;;;;;;8.05;5.90;;;21.40;99.90;;;;;;5029855;28;20095;-76
2023/06/19 02:34:34;;;;;;;7.20;5.72;;;21.40;99.90;;;;;;5026750;28;20124;-77
2023/06/19 02:36:59;;;;;;;6.30;5.55;;;21.40;99.90;;;;;;5025354;28;20041;-76
2023/06/19 02:39:25;;;;;;;7.00;6.30;;;21.40;99.90;;;;;;5028812;28;20045;-76
2023/06/19 02:41:50;;;;;;;6.97;5.57;;;21.40;99.90;;;;;;5028882;28;20038;-77
2023/06/19 02:44:16;;;;;;;6.82;6.13;;;21.40;99.90;;;;;;5029770;28;20087;-76
2023/06/19 02:46:41;;;;;;;7.43;5.72;;;21.30;99.90;;;;;;5028979;28;20128;-77
2023/06/19 02:49:07;;;;;;;7.90;5.82;;;21.30;99.90;;;;;;5030370;28;20084;-76
2023/06/19 02:51:32;;;;;;;6.75;5.70;;;21.30;99.90;;;;;;5028514;28;20047;-77
2023/06/19 02:53:58;;;;;;;8.80;6.10;;;21.40;99.90;;;;;;5028377;28;20061;-77
2023/06/19 02:56:25;;;;;;;8.52;5.80;;;21.30;99.90;;;;;;5029494;28;20033;-76
2023/06/19 02:58:50;;;;;;;6.95;6.00;;;21.30;99.90;;;;;;5029760;28;20041;-77
2023/06/19 03:01:16;;;;;;;7.25;6.32;;;21.30;99.90;;;;;;5029116;28;20040;-76
2023/06/19 03:03:41;;;;;;;7.00;5.53;;;21.30;99.90;;;;;;5030147;28;20037;-76
2023/06/19 03:06:08;;;;;;;7.57;6.15;;;21.30;99.90;;;;;;5030523;28;20103;-77
2023/06/19 03:08:34;;;;;;;7.55;6.47;;;21.30;99.90;;;;;;5044960;28;20091;-76
2023/06/19 03:11:00;;;;;;;7.05;6.20;;;21.20;99.90;;;;;;5029221;28;20583;-76
2023/06/19 03:13:26;;;;;;;6.68;6.00;;;21.20;99.90;;;;;;5029882;28;20041;-76
2023/06/19 03:15:51;;;;;;;8.38;6.70;;;21.20;99.90;;;;;;5029159;28;20124;-77
2023/06/19 03:18:17;;;;;;;8.23;6.20;;;21.20;99.90;;;;;;5045960;28;20091;-77
2023/06/19 03:20:42;;;;;;;6.72;5.90;;;21.20;99.90;;;;;;5029948;28;20084;-77
2023/06/19 03:23:08;;;;;;;6.85;6.10;;;21.20;99.90;;;;;;5029191;28;20041;-76
2023/06/19 03:25:34;;;;;;;7.10;6.28;;;21.20;99.90;;;;;;5045244;28;20037;-77
2023/06/19 03:28:04;;;;;;;7.95;6.10;;;21.10;99.90;;;;;;5029514;28;20037;-77
2023/06/19 03:30:30;;;;;;;7.35;6.10;;;21.10;99.90;;;;;;5028788;28;20040;-77
2023/06/19 03:32:56;;;;;;;7.20;6.50;;;21.10;99.90;;;;;;5028381;28;20037;-77
2023/06/19 03:35:21;;;;;;;7.45;5.75;;;21.00;99.90;;;;;;5028717;28;20079;-77
2023/06/19 03:37:47;;;;;;;8.43;6.53;;;21.10;99.90;;;;;;5006986;28;20485;-77
2023/06/19 03:40:13;;;;;;;7.97;6.70;;;21.00;99.90;;;;;;5028607;28;20128;-77
2023/06/19 03:42:40;;;;;;;6.90;5.80;;;21.00;99.90;;;;;;5028700;28;20041;-77
2023/06/19 03:45:06;;;;;;;8.13;6.00;;;21.00;99.90;;;;;;5028785;28;20038;-76
2023/06/19 03:47:31;;;;;;;7.03;6.32;;;21.10;99.90;;;;;;5029079;28;20397;-77
2023/06/19 03:49:57;;;;;;;6.82;5.82;;;21.10;99.90;;;;;;5029509;28;20045;-77
2023/06/19 03:52:22;;;;;;;8.82;6.57;;;21.10;99.90;;;;;;5028357;28;20042;-76
2023/06/19 03:54:48;;;;;;;7.32;6.20;;;21.10;99.90;;;;;;5027906;28;20048;-78
2023/06/19 03:57:13;;;;;;;6.47;5.78;;;21.20;99.90;;;;;;5028664;28;20038;-77
2023/06/19 03:59:39;;;;;;;6.57;5.88;;;21.20;99.90;;;;;;5029552;28;20041;-77
2023/06/19 04:02:05;;;;;;;7.60;5.85;;;21.20;99.90;;;;;;5028729;28;20396;-77
2023/06/19 04:04:30;;;;;;;7.22;6.10;;;21.10;99.90;;;;;;5028243;28;20051;-77
2023/06/19 04:06:56;;;;;;;8.20;5.93;;;21.20;99.90;;;;;;5033602;28;20037;-76
2023/06/19 04:09:21;;;;;;;6.60;5.47;;;21.20;99.90;;;;;;5032158;28;20416;-79
2023/06/19 04:11:47;;;;;;;6.22;5.30;;;21.20;99.90;;;;;;5048362;28;20534;-76
2023/06/19 04:14:12;;;;;;;7.93;6.00;;;21.20;99.90;;;;;;5032762;28;20458;-77
2023/06/19 04:16:38;;;;;;;8.15;5.47;;;21.20;99.90;;;;;;5016088;28;20116;-76
2023/06/19 04:19:03;;;;;;;7.88;5.57;;;21.10;99.90;;;;;;5033525;28;20038;-78
2023/06/19 04:21:29;;;;;;;6.63;5.53;;;21.10;99.90;;;;;;5048302;28;20025;-76
2023/06/19 04:23:54;;;;;;;6.35;5.45;;;21.10;99.90;;;;;;5033815;28;20435;-77
2023/06/19 04:26:21;;;;;;;7.80;5.80;;;21.10;99.90;;;;;;5033291;28;20508;-77
2023/06/19 04:28:47;;;;;;;6.45;5.20;;;21.10;99.90;;;;;;5032606;28;20037;-77
2023/06/19 04:31:12;;;;;;;7.93;5.95;;;21.10;99.90;;;;;;5032149;28;20041;-81
2023/06/19 04:33:40;;;;;;;6.10;5.38;;;21.10;99.90;;;;;;5032271;28;20048;-77
2023/06/19 04:36:05;;;;;;;6.95;5.35;;;21.20;99.90;;;;;;5034642;28;20117;-76
2023/06/19 04:38:31;;;;;;;5.97;4.75;;;21.10;99.90;;;;;;5031961;28;20504;-76
2023/06/19 04:40:57;;;;;;;5.40;4.70;;;21.10;99.90;;;;;;5031911;28;20405;-77
2023/06/19 04:43:24;;;;;;;4.97;4.25;;;21.10;99.90;;;;;;5047548;28;20855;-76
2023/06/19 04:45:50;;;;;;;7.05;4.40;;;21.10;99.90;;;;;;5031351;28;20046;-78
2023/06/19 04:48:15;;;;;;;8.52;4.07;;;21.20;99.90;;;;;;5032594;28;20052;-77
2023/06/19 04:50:41;;;;;;;5.20;3.75;;;21.20;99.90;;;;;;5031894;28;20092;-77
2023/06/19 04:53:06;;;;;;;4.53;4.10;;;21.20;99.90;;;;;;5034009;28;20034;-78
2023/06/19 04:55:32;;;;;;;7.03;3.75;;;21.20;99.90;;;;;;5031162;28;20659;-77
2023/06/19 04:57:57;;;;;;;5.13;3.70;;;21.20;99.90;;;;;;5032103;28;20047;-77
2023/06/19 05:00:23;;;;;;;4.47;3.63;;;21.20;99.90;;;;;;5030347;28;20103;-78
2023/06/19 05:02:49;;;;;;;6.03;3.63;;;21.30;99.90;;;;;;5032096;28;20091;-76
2023/06/19 05:05:16;;;;;;;4.07;3.42;;;21.20;99.90;;;;;;5005462;28;20057;-76
2023/06/19 05:07:42;;;;;;;4.40;3.53;;;21.30;99.90;;;;;;5032460;28;20041;-77
2023/06/19 05:10:08;;;;;;;4.45;4.00;;;21.30;99.90;;;;;;5031632;28;20155;-78
2023/06/19 05:12:34;;;;;;;7.05;3.95;;;21.30;99.90;;;;;;5030630;28;20052;-77
2023/06/19 05:15:00;;;;;;;3.67;3.28;;;21.30;99.90;;;;;;5031666;28;20037;-79
2023/06/19 05:17:26;;;;;;;4.57;3.20;;;21.40;99.90;;;;;;5034440;28;20045;-80
2023/06/19 05:19:51;;;;;;;6.20;3.78;;;21.30;99.90;;;;;;5053098;28;20058;-78
2023/06/19 05:22:18;;;;;;;3.85;3.40;;;21.30;99.90;;;;;;5036686;28;20041;-79
2023/06/19 05:24:44;;;;;;;5.80;3.95;;;21.40;99.90;;;;;;5036658;28;20124;-79
2023/06/19 05:27:10;;;;;;;4.95;4.10;;;21.40;99.90;;;;;;5035955;28;20122;-79
2023/06/19 05:29:35;;;;;;;5.32;3.88;;;21.40;99.90;;;;;;5032242;28;20084;-77
2023/06/19 05:32:01;;;;;;;4.68;4.03;;;21.40;99.90;;;;;;5048481;28;20100;-78
2023/06/19 05:34:26;;;;;;;5.38;4.70;;;21.40;99.90;;;;;;5032242;28;20051;-76
2023/06/19 05:36:52;;;;;;;5.00;4.22;;;21.50;99.90;;;;;;5031189;28;20037;-77
2023/06/19 05:39:18;;;;;;;4.13;3.42;;;21.60;99.90;;;;;;5031420;28;20041;-78
2023/06/19 05:41:45;;;;;;;4.72;4.07;;;21.70;99.90;;;;;;5031504;28;20034;-78
2023/06/19 05:44:14;;;;;;;5.20;3.85;;;21.80;99.90;;;;;;5036916;28;20052;-80
2023/06/19 05:46:40;;;;;;;8.48;4.40;;;21.90;99.90;;;;;;5036407;28;20037;-79
2023/06/19 05:49:06;;;;;;;5.10;4.35;;;21.90;99.90;;;;;;5052741;28;20059;-79
2023/06/19 05:51:31;;;;;;;5.95;4.38;;;21.90;99.90;;;;;;5035453;28;20041;-80
2023/06/19 05:54:02;;;;;;;4.80;4.10;;;21.90;99.90;;;;;;5037373;28;20392;-80
2023/06/19 05:56:28;;;;;;;5.82;4.50;;;21.80;99.90;;;;;;5036236;28;20049;-79
2023/06/19 05:58:54;;;;;;;4.63;3.92;;;21.70;99.90;;;;;;5035678;28;20443;-79
2023/06/19 06:01:19;;;;;;;6.68;3.90;;;21.70;99.90;;;;;;5036256;28;20052;-80
2023/06/19 06:03:45;;;;;;;6.00;4.78;;;21.70;99.90;;;;;;5036789;28;20041;-79
2023/06/19 06:06:11;;;;;;;5.22;4.10;;;21.60;99.90;;;;;;5036378;28;20559;-78
2023/06/19 06:08:36;;;;;;;5.72;3.83;;;21.60;99.90;;;;;;5038477;28;20049;-81
2023/06/19 06:11:02;;;;;;;8.38;4.72;;;21.60;99.90;;;;;;5048614;28;20052;-77
2023/06/19 06:13:27;;;;;;;6.20;4.20;;;21.50;99.90;;;;;;5031418;28;20365;-78
2023/06/19 06:15:53;;;;;;;5.40;4.68;;;21.60;99.90;;;;;;5030698;28;20044;-78
2023/06/19 06:18:19;;;;;;;7.10;5.22;;;21.50;99.90;;;;;;5029065;28;20033;-78
2023/06/19 06:20:45;;;;;;;6.00;5.15;;;21.60;99.90;;;;;;5029990;28;20091;-78
2023/06/19 06:23:10;;;;;;;10.18;6.00;;;21.60;99.90;;;;;;5029422;28;20030;-78
2023/06/19 06:25:36;;;;;;;7.38;5.50;;;21.60;99.90;;;;;;5013474;28;20046;-79
2023/06/19 06:28:01;;;;;;;7.60;5.63;;;21.50;99.90;;;;;;5028629;28;20049;-78
2023/06/19 06:30:28;;;;;;;7.00;6.00;;;21.50;99.90;;;;;;5029035;28;20049;-79
2023/06/19 06:32:53;;;;;;;5.53;4.93;;;21.60;99.90;;;;;;5029427;28;20504;-78
2023/06/19 06:35:19;;;;;;;7.38;4.95;;;21.60;99.90;;;;;;5031086;28;20048;-77
2023/06/19 06:37:46;;;;;;;5.53;4.72;;;21.50;99.90;;;;;;5030101;28;20095;-78
2023/06/19 06:40:11;;;;;;;6.97;4.70;;;21.50;99.90;;;;;;5029859;28;20068;-80
2023/06/19 06:42:38;;;;;;;5.05;4.55;;;21.60;99.90;;;;;;5014332;28;20083;-78
2023/06/19 06:45:07;;;;;;;5.00;4.35;;;21.60;99.90;;;;;;5014576;28;20132;-79
2023/06/19 06:47:34;;;;;;;8.18;4.20;;;21.60;99.90;;;;;;5029674;28;20037;-77
2023/06/19 06:49:59;;;;;;;6.60;4.40;;;21.60;99.90;;;;;;5029496;28;20041;-78
2023/06/19 06:52:25;;;;;;;5.28;4.70;;;21.60;99.90;;;;;;5046091;28;20048;-78
2023/06/19 06:54:51;;;;;;;7.13;4.72;;;21.60;99.90;;;;;;5045679;28;20041;-78
2023/06/19 06:57:16;;;;;;;6.45;4.10;;;21.50;99.90;;;;;;5029428;28;20041;-78
2023/06/19 06:59:42;;;;;;;6.10;4.20;;;21.50;99.90;;;;;;5031069;28;20128;-79
2023/06/19 07:02:08;;;;;;;5.32;4.50;;;21.50;99.90;;;;;;5049103;28;20292;-80
2023/06/19 07:04:33;;;;;;;5.53;4.85;;;21.40;99.90;;;;;;5036408;28;20095;-79
2023/06/19 07:06:59;;;;;;;6.32;5.60;;;21.40;99.90;;;;;;5030921;28;20041;-80
2023/06/19 07:09:24;;;;;;;15.52;5.75;;;21.20;99.90;;;;;;5030794;28;20049;-81
2023/06/19 07:11:50;;;;;;;7.30;6.22;;;21.20;99.90;;;;;;5023256;28;20041;-79
2023/06/19 07:14:18;;;;;;;7.15;6.45;;;21.20;99.90;;;;;;5033287;28;20041;-79
2023/06/19 07:16:47;;;;;;;7.60;6.80;;;21.10;99.90;;;;;;5034737;28;20061;-79
2023/06/19 07:19:13;;;;;;;8.88;7.15;;;21.20;99.90;;;;;;5032425;28;20037;-79
2023/06/19 07:21:39;;;;;;;10.05;6.60;;;21.10;99.90;;;;;;5034884;28;20060;-79
2023/06/19 07:24:05;;;;;;;10.95;6.90;;;21.20;99.90;;;;;;5023743;28;20052;-80
2023/06/19 07:26:31;;;;;;;11.50;7.38;;;21.10;99.90;;;;;;5033044;28;20095;-79
2023/06/19 07:28:57;;;;;;;9.80;8.43;;;21.10;99.90;;;;;;5034548;28;20037;-80
2023/06/19 07:31:22;;;;;;;7.72;6.93;;;21.10;99.90;;;;;;5033238;28;20044;-79
2023/06/19 07:33:48;;;;;;;15.35;8.77;;;21.10;99.90;;;;;;5035268;28;20038;-79
2023/06/19 07:36:15;;;;;;;11.15;9.18;;;21.10;99.90;;;;;;5052050;28;20091;-81
2023/06/19 07:38:42;;;;;;;11.40;8.80;;;21.10;99.90;;;;;;5034584;28;20037;-80
2023/06/19 07:41:09;;;;;;;11.90;9.73;;;21.10;99.90;;;;;;5035080;28;20049;-81
2023/06/19 07:43:35;;;;;;;14.13;10.32;;;21.10;99.90;;;;;;5032601;28;20068;-79
2023/06/19 07:46:01;;;;;;;12.75;9.75;;;21.20;99.90;;;;;;5026855;28;20489;-80
2023/06/19 07:48:26;;;;;;;14.98;9.75;;;21.20;99.90;;;;;;5047233;28;20170;-78
2023/06/19 07:50:53;;;;;;;14.27;10.50;;;21.30;99.90;;;;;;5031428;28;20124;-79
2023/06/19 07:53:19;;;;;;;13.10;9.55;;;21.40;99.90;;;;;;5024254;28;20527;-79
2023/06/19 07:55:45;;;;;;;13.50;10.00;;;21.50;99.90;;;;;;5030548;28;20121;-79
2023/06/19 07:58:10;;;;;;;13.02;9.95;;;21.60;99.90;;;;;;5030695;28;20087;-79
2023/06/19 08:00:36;;;;;;;12.40;9.30;;;21.70;99.90;;;;;;5029924;28;20030;-79
2023/06/19 08:03:01;;;;;;;10.93;8.18;;;21.80;99.90;;;;;;5026187;28;20057;-80
2023/06/19 08:05:27;;;;;;;11.82;8.27;;;21.80;99.90;;;;;;5038611;28;20067;-79
2023/06/19 08:07:52;;;;;;;9.10;7.32;;;21.90;99.90;;;;;;5046026;28;20102;-80
2023/06/19 08:10:18;;;;;;;10.68;8.13;;;21.90;99.90;;;;;;5022885;28;20049;-77
2023/06/19 08:12:44;;;;;;;15.68;8.48;;;21.80;99.90;;;;;;5044894;28;20052;-78
2023/06/19 08:15:11;;;;;;;10.05;7.35;;;21.70;99.90;;;;;;5025509;28;20037;-78
2023/06/19 08:17:36;;;;;;;11.15;8.52;;;21.60;99.90;;;;;;5021140;28;20033;-77
2023/06/19 08:20:06;;;;;;;13.90;8.63;;;21.60;99.90;;;;;;5024829;28;20037;-77
2023/06/19 08:22:32;;;;;;;13.20;8.10;;;21.60;99.90;;;;;;5022072;28;20045;-78
2023/06/19 08:24:58;;;;;;;13.10;8.23;;;21.50;99.90;;;;;;5023506;28;20045;-76
2023/06/19 08:27:23;;;;;;;9.88;7.90;;;21.50;99.90;;;;;;5025642;28;20475;-76
2023/06/19 08:29:49;;;;;;;12.48;8.57;;;21.40;99.90;;;;;;5025291;28;20037;-77
2023/06/19 08:32:14;;;;;;;14.50;8.02;;;21.40;99.90;;;;;;5028114;28;20396;-77
2023/06/19 08:34:41;;;;;;;9.23;7.28;;;21.40;99.90;;;;;;5026997;28;20052;-76
2023/06/19 08:37:06;;;;;;;9.32;7.65;;;21.30;99.90;;;;;;5033930;28;20526;-77
2023/06/19 08:39:32;;;;;;;10.60;8.20;;;21.30;99.90;;;;;;5024195;28;20048;-79
2023/06/19 08:41:58;;;;;;;12.35;7.97;;;21.30;99.90;;;;;;5021171;28;20033;-80
2023/06/19 08:44:23;;;;;;;14.77;8.77;;;21.20;99.90;;;;;;5017221;28;20049;-77
2023/06/19 08:46:49;;;;;;;19.92;8.15;;;21.10;99.90;;;;;;5012617;28;20034;-78
2023/06/19 08:49:14;;;;;;;10.93;7.18;;;21.20;99.90;;;;;;5028964;28;20044;-77
2023/06/19 08:51:43;;;;;;;9.60;6.95;;;21.20;99.90;;;;;;5030690;28;20114;-76
2023/06/19 08:54:08;;;;;;;7.75;6.70;;;21.30;99.90;;;;;;5026036;28;20049;-77
2023/06/19 08:56:35;;;;;;;8.40;5.65;;;21.30;99.90;;;;;;5031833;28;20516;-77
2023/06/19 08:59:17;;;;;;;7.50;5.30;;;21.30;99.90;;;;;;5029998;28;20033;-78
2023/06/19 09:01:54;;;;;;;7.05;5.03;;;21.40;99.90;;;;;;5034632;28;20037;-77
2023/06/19 09:04:28;;;;;;;6.97;4.47;;;21.40;99.90;;;;;;5030298;28;20092;-76
2023/06/19 09:06:56;;;;;;;6.43;4.43;;;21.40;99.90;;;;;;5033299;28;20033;-76
2023/06/19 09:09:24;;;;;;;7.30;4.72;;;21.50;99.90;;;;;;5034359;28;20037;-77
2023/06/19 09:12:04;;;;;;;8.93;4.70;;;21.50;99.90;;;;;;5033357;28;20099;-78
2023/06/19 09:14:40;;;;;;;6.40;4.63;;;21.60;99.90;;;;;;5031194;28;20037;-77
2023/06/19 09:17:11;;;;;;;7.05;4.50;;;21.50;99.90;;;;;;5034031;28;20025;-77
2023/06/19 09:19:36;;;;;;;5.78;4.32;;;21.60;99.90;;;;;;5010468;28;20044;-78
2023/06/19 09:22:09;;;;;;;6.93;4.10;;;21.70;99.90;;;;;;5051407;28;20029;-78
2023/06/19 09:24:40;;;;;;;6.13;4.13;;;21.80;99.90;;;;;;5042752;28;20041;-79
2023/06/19 09:27:13;;;;;;;8.48;4.45;;;21.90;99.90;;;;;;5023543;28;20497;-79
2023/06/19 09:29:43;;;;;;;5.60;4.37;;;22.10;99.90;;;;;;5024322;28;20041;-79
2023/06/19 09:32:22;;;;;;;4.45;3.55;;;22.10;99.90;;;;;;5030092;28;20350;-79
2023/06/19 09:34:50;;;;;;;6.53;3.97;;;22.10;99.90;;;;;;5031440;28;20104;-78
2023/06/19 09:37:26;;;;;;;5.43;3.70;;;22.10;99.90;;;;;;5029488;28;20034;-79
2023/06/19 09:39:54;;;;;;;6.57;3.88;;;22.20;99.90;;;;;;5031245;28;20168;-79
2023/06/19 09:42:33;;;;;;;6.78;4.80;;;22.20;99.90;;;;;;5029471;28;20025;-80
2023/06/19 09:45:04;;;;;;;7.53;5.70;;;22.20;99.90;;;;;;5028592;28;20096;-76
2023/06/19 09:47:51;;;;;;;7.15;6.15;;;22.10;99.90;;;;;;5029066;28;20041;-78
2023/06/19 09:50:17;;;;;;;7.75;5.32;;;22.00;99.90;;;;;;5028020;28;20037;-77
2023/06/19 09:52:44;;;;;;;7.30;4.72;;;21.90;99.90;;;;;;5022434;28;20362;-78
2023/06/19 09:55:14;;;;;;;9.75;5.60;;;21.80;99.90;;;;;;5025976;28;20038;-77
2023/06/19 09:57:41;;;;;;;5.93;5.15;;;21.80;99.90;;;;;;5020649;28;20168;-76
2023/06/19 10:00:12;;;;;;;8.38;5.63;;;21.80;99.90;;;;;;5017739;28;20037;-77
2023/06/19 10:02:46;;;;;;;6.65;5.90;;;21.80;99.90;;;;;;5005607;28;20049;-78
2023/06/19 10:05:13;;;;;;;6.05;5.30;;;21.80;99.90;;;;;;5026275;28;20033;-76
2023/06/19 10:07:42;;;;;;;6.50;5.78;;;21.80;99.90;;;;;;5023474;28;20124;-76
2023/06/19 10:10:12;;;;;;;7.80;5.30;;;21.80;99.90;;;;;;5035860;28;20547;-77
2023/06/19 10:12:45;;;;;;;6.82;5.15;;;21.80;99.90;;;;;;5018064;28;20235;-76
2023/06/19 10:15:16;;;;;;;7.20;5.95;;;21.80;99.90;;;;;;5030903;28;20069;-76
2023/06/19 10:18:17;;;;;;;10.65;6.50;;;21.70;99.90;;;;;;5031138;28;20034;-76
2023/06/19 10:20:45;;;;;;;8.20;6.03;;;21.70;99.90;;;;;;5030230;28;20394;-76
2023/06/19 10:23:17;;;;;;;8.27;6.53;;;21.70;99.90;;;;;;5028020;28;20068;-77
2023/06/19 10:25:45;;;;;;;9.07;6.53;;;21.70;99.90;;;;;;5030651;28;20072;-77
2023/06/19 10:28:21;;;;;;;10.85;8.43;;;21.60;99.90;;;;;;5027060;28;20060;-76
2023/06/19 10:31:04;;;;;;;9.02;7.18;;;21.70;99.90;;;;;;5024855;28;20047;-77
2023/06/19 10:33:34;;;;;;;8.13;7.03;;;21.80;99.90;;;;;;5029973;28;20099;-77
2023/06/19 10:36:18;;;;;;;10.77;6.90;;;21.90;99.90;;;;;;5026843;28;20493;-78
2023/06/19 10:38:47;;;;;;;11.02;7.47;;;22.00;99.90;;;;;;5028231;28;20449;-78
2023/06/19 10:41:25;;;;;;;8.13;7.18;;;22.10;99.90;;;;;;5028008;28;20059;-79
2023/06/19 10:44:04;;;;;;;9.23;6.75;;;22.30;99.90;;;;;;5019563;28;20128;-77
2023/06/19 10:46:32;;;;;;;9.80;7.07;;;22.40;99.90;;;;;;5028092;28;20040;-77
2023/06/19 10:49:01;;;;;;;9.00;6.93;;;22.40;99.90;;;;;;5028936;28;20088;-76
2023/06/19 10:51:28;;;;;;;8.30;7.10;;;22.50;99.90;;;;;;5029754;28;20037;-77
2023/06/19 10:53:55;;;;;;;8.40;6.57;;;22.50;99.90;;;;;;5029137;28;20403;-77
2023/06/19 10:56:22;;;;;;;8.07;6.47;;;22.60;99.90;;;;;;5027213;28;20044;-78
2023/06/19 10:58:47;;;;;;;8.57;7.50;;;22.80;99.90;;;;;;5030313;28;20037;-77
2023/06/19 11:01:13;;;;;;;8.77;7.88;;;22.90;99.90;;;;;;5030055;28;20046;-77
2023/06/19 11:03:39;;;;;;;8.77;6.90;;;22.90;99.90;;;;;;5029481;28;20047;-77
2023/06/19 11:06:04;;;;;;;9.18;6.50;;;22.80;99.90;;;;;;5026645;28;20048;-77
2023/06/19 11:08:30;;;;;;;10.30;7.88;;;22.90;99.90;;;;;;5021989;28;20046;-77
2023/06/19 11:10:56;;;;;;;11.05;7.88;;;23.00;99.90;;;;;;5024266;28;20064;-78
2023/06/19 11:13:22;;;;;;;9.48;7.60;;;23.20;99.90;;;;;;5026849;28;20071;-77
2023/06/19 11:15:51;;;;;;;9.77;8.65;;;23.50;99.90;;;;;;5043342;28;20114;-76
2023/06/19 11:18:18;;;;;;;10.07;8.85;;;23.50;99.90;;;;;;5025652;28;20038;-77
2023/06/19 11:20:46;;;;;;;9.60;7.95;;;23.50;99.90;;;;;;5022663;28;20040;-77
2023/06/19 11:23:12;;;;;;;11.45;7.97;;;23.60;99.90;;;;;;5029780;28;20049;-76
2023/06/19 11:25:39;;;;;;;10.18;9.13;;;23.70;99.90;;;;;;5013531;28;20547;-76
2023/06/19 11:28:10;;;;;;;9.57;8.07;;;23.80;99.90;;;;;;5046498;28;20057;-77
2023/06/19 11:30:36;;;;;;;9.63;8.05;;;24.10;99.90;;;;;;5046096;28;20517;-76
2023/06/19 11:33:01;;;;;;;10.07;8.27;;;24.10;99.90;;;;;;5046080;28;20057;-77
2023/06/19 11:35:36;;;;;;;11.98;10.18;;;24.40;99.90;;;;;;5030038;28;20520;-78
2023/06/19 11:38:02;;;;;;;17.13;10.27;;;24.50;99.90;;;;;;5030270;28;20041;-77
2023/06/19 11:40:29;;;;;;;15.05;11.10;;;24.50;99.90;;;;;;5020753;28;20041;-79
2023/06/19 11:42:55;;;;;;;11.73;9.80;;;24.50;99.90;;;;;;5029591;28;20042;-76
2023/06/19 11:45:21;;;;;;;11.43;9.55;;;24.40;99.90;;;;;;5029366;28;20128;-76
2023/06/19 11:47:47;;;;;;;14.88;9.35;;;24.30;99.90;;;;;;5046437;28;20500;-76
2023/06/19 11:50:15;;;;;;;11.20;9.10;;;24.30;99.90;;;;;;5046115;28;20127;-77
2023/06/19 11:52:42;;;;;;;14.10;10.25;;;24.20;99.90;;;;;;5045869;28;20095;-76
2023/06/19 11:55:08;;;;;;;10.63;9.23;;;24.20;99.90;;;;;;5046106;28;20053;-77
2023/06/19 11:57:34;;;;;;;10.35;8.68;;;24.20;99.90;;;;;;5043489;28;20079;-76
2023/06/19 11:59:59;;;;;;;10.23;8.40;;;24.40;99.90;;;;;;5027007;28;20033;-76
2023/06/19 12:02:25;;;;;;;10.45;8.57;;;24.40;99.90;;;;;;5012864;28;20064;-76
2023/06/19 12:04:50;;;;;;;11.77;10.02;;;24.40;99.90;;;;;;5021116;28;20412;-76
2023/06/19 12:07:16;;;;;;;10.05;8.63;;;24.50;99.90;;;;;;5020706;28;20041;-78
2023/06/19 12:09:42;;;;;;;9.32;7.72;;;24.20;99.90;;;;;;5022277;28;20041;-76
2023/06/19 12:12:09;;;;;;;10.82;8.50;;;24.20;99.90;;;;;;4995427;28;20042;-77
2023/06/19 12:14:34;;;;;;;8.55;7.18;;;24.30;99.90;;;;;;5024319;28;20033;-78
2023/06/19 12:17:00;;;;;;;10.00;8.20;;;24.50;99.90;;;;;;5027775;28;20041;-76
2023/06/19 12:19:27;;;;;;;9.80;7.65;;;24.70;99.90;;;;;;5017628;28;20038;-77
2023/06/19 12:21:53;;;;;;;10.43;8.70;;;24.90;99.90;;;;;;5022079;28;20043;-76
2023/06/19 12:24:19;;;;;;;11.25;8.43;;;25.10;99.90;;;;;;5019762;28;20034;-77
2023/06/19 12:26:44;;;;;;;11.27;7.90;;;25.30;99.90;;;;;;5028991;28;20034;-77
2023/06/19 12:29:10;;;;;;;11.88;8.02;;;25.50;99.90;;;;;;5022291;28;20061;-76
2023/06/19 12:31:36;;;;;;;9.95;7.50;;;25.60;99.90;;;;;;5022686;28;20120;-76
2023/06/19 12:34:02;;;;;;;10.57;7.40;;;25.80;99.90;;;;;;5020715;28;20129;-76
2023/06/19 12:36:31;;;;;;;9.85;7.53;;;25.60;99.90;;;;;;5018218;28;20580;-76
2023/06/19 12:38:56;;;;;;;10.65;9.18;;;25.70;99.90;;;;;;5020554;28;20041;-76
2023/06/19 12:41:22;;;;;;;16.77;9.00;;;25.70;99.90;;;;;;5021953;28;20088;-77
2023/06/19 12:43:48;;;;;;;13.18;8.35;;;25.50;99.90;;;;;;5019786;28;20033;-76